Oscoda, Michigan
Current Conditions -  °F | °C
As of 9:13 AM on Thursday 29 Jan 2015 (Local Time) from KOSC Reporting Station
Light Snow Light Snow  
Wind Chill: 18°   Ceiling: 900
Heat Index: 25°   Visibility: 0.75mi
Dew Point: 24°   Wind: 6mph
Humidity: 95%   Direction: 200°SSW
Pressure: 29.78"   Gusts: NA
Location:  44.42°N, 83.33°W
Report Text: KOSC 291413Z AUTO 20005KT 3/4SM -SN OVC009 M03/M04 A2978 RMK AO2 T10381045
Loading
Personal Weather Stations






























Interactive Weather Map New forecast layout! Learn more

10-Day Weather Forecast

Advertisements
Track Severe Weather on mobile